createdAt,value
2023-02-15T00:00:14.749Z,1.20
2023-02-15T00:03:02.536Z,1.21
2023-02-15T00:05:32.191Z,1.23
2023-02-15T00:08:00.068Z,1.26
2023-02-15T00:10:27.968Z,1.25
2023-02-15T00:12:55.789Z,1.28
2023-02-15T00:15:23.627Z,1.31
2023-02-15T00:17:51.444Z,1.25
2023-02-15T00:20:20.003Z,1.19
2023-02-15T00:22:47.835Z,1.15
2023-02-15T00:25:15.797Z,1.17
2023-02-15T00:27:44.015Z,1.24
2023-02-15T00:30:13.018Z,1.27
2023-02-15T00:32:40.898Z,1.22
2023-02-15T00:35:09.763Z,1.26
2023-02-15T00:37:37.725Z,1.34
2023-02-15T00:40:07.167Z,1.30
2023-02-15T00:42:35.056Z,1.24
2023-02-15T00:45:03.241Z,1.19
2023-02-15T00:47:31.063Z,1.19
2023-02-15T00:49:59.060Z,1.24
2023-02-15T00:52:26.845Z,1.25
2023-02-15T00:54:54.628Z,1.24
2023-02-15T00:57:22.455Z,1.26
2023-02-15T00:59:51.173Z,1.24
2023-02-15T01:02:19.345Z,1.21
2023-02-15T01:04:48.240Z,1.22
2023-02-15T01:07:17.618Z,1.24
2023-02-15T01:09:45.419Z,1.24
2023-02-15T01:12:13.221Z,1.26
2023-02-15T01:14:41.152Z,1.29
2023-02-15T01:17:08.973Z,1.32
2023-02-15T01:19:36.843Z,1.28
2023-02-15T01:22:04.939Z,1.27
2023-02-15T01:24:36.044Z,1.22
2023-02-15T01:27:04.145Z,1.26
2023-02-15T01:29:32.115Z,1.36
2023-02-15T01:31:59.986Z,1.42
2023-02-15T01:34:27.854Z,1.41
2023-02-15T01:36:55.649Z,1.42
2023-02-15T01:39:23.768Z,1.43
2023-02-15T01:41:52.576Z,1.44
2023-02-15T01:44:49.973Z,1.37
2023-02-15T01:47:44.211Z,1.34
2023-02-15T01:50:38.114Z,1.35
2023-02-15T01:53:32.994Z,1.38
2023-02-15T01:56:08.435Z,1.35
2023-02-15T01:58:37.854Z,1.37
2023-02-15T02:01:09.355Z,1.35
2023-02-15T02:03:47.437Z,1.32
2023-02-15T02:06:15.885Z,1.28
2023-02-15T02:08:45.119Z,1.23
2023-02-15T02:11:15.483Z,1.25
2023-02-15T02:13:45.814Z,1.26
2023-02-15T02:17:06.110Z,1.22
2023-02-15T02:20:07.284Z,1.19
2023-02-15T02:23:11.602Z,1.22
2023-02-15T02:25:45.725Z,1.18
2023-02-15T02:29:16.788Z,1.24
2023-02-15T02:32:26.549Z,1.29
2023-02-15T02:35:24.477Z,1.28
2023-02-15T02:38:26.773Z,1.32
2023-02-15T02:41:19.592Z,1.20
2023-02-15T02:44:14.027Z,1.12
2023-02-15T02:46:54.121Z,1.15
2023-02-15T02:49:37.533Z,1.04
2023-02-15T02:52:28.411Z,1.00
2023-02-15T02:54:58.374Z,0.85
2023-02-15T02:57:29.301Z,0.85
2023-02-15T03:00:03.744Z,0.74
2023-02-15T03:02:45.380Z,0.69
2023-02-15T03:05:20.764Z,0.67
2023-02-15T03:07:53.644Z,0.75
2023-02-15T03:10:25.514Z,0.86
2023-02-15T03:12:54.624Z,0.84
2023-02-15T03:15:49.613Z,0.77
2023-02-15T03:18:23.286Z,0.81
2023-02-15T03:20:53.600Z,0.80
2023-02-15T03:23:25.676Z,0.81
2023-02-15T03:26:01.960Z,0.75
2023-02-15T03:28:45.607Z,0.73
2023-02-15T03:31:17.874Z,0.61
2023-02-15T03:34:07.476Z,0.64
2023-02-15T03:37:12.705Z,0.72
2023-02-15T03:40:32.220Z,0.77
2023-02-15T03:43:47.107Z,0.73
2023-02-15T03:46:43.560Z,0.86
2023-02-15T03:49:23.037Z,0.93
2023-02-15T03:51:56.988Z,0.93
2023-02-15T03:54:44.938Z,0.85
2023-02-15T03:57:46.873Z,0.85
2023-02-15T04:00:42.623Z,0.82
2023-02-15T04:03:16.573Z,0.78
2023-02-15T04:05:46.066Z,0.69
2023-02-15T04:08:14.293Z,0.69
2023-02-15T04:10:54.352Z,0.67
2023-02-15T04:13:32.779Z,0.67
2023-02-15T04:16:08.157Z,0.70
2023-02-15T04:19:00.389Z,0.81
2023-02-15T04:21:49.826Z,0.85
2023-02-15T04:24:37.555Z,0.89
2023-02-15T04:27:06.857Z,0.81
2023-02-15T04:29:34.857Z,0.80
2023-02-15T04:32:03.555Z,0.79
2023-02-15T04:34:31.415Z,0.84
2023-02-15T04:36:59.255Z,0.85
2023-02-15T04:39:27.068Z,0.82
2023-02-15T04:41:54.910Z,0.86
2023-02-15T04:44:22.793Z,0.83
2023-02-15T04:46:50.660Z,0.79
2023-02-15T04:49:18.465Z,0.75
2023-02-15T04:51:46.382Z,0.68
2023-02-15T04:54:14.250Z,0.63
2023-02-15T04:56:44.014Z,0.68
2023-02-15T04:59:12.319Z,0.74
2023-02-15T05:01:40.400Z,0.80
2023-02-15T05:04:08.976Z,0.80
2023-02-15T05:06:36.888Z,0.76
2023-02-15T05:09:04.680Z,0.80
2023-02-15T05:11:32.635Z,0.80
2023-02-15T05:14:00.408Z,0.81
2023-02-15T05:16:28.876Z,0.74
2023-02-15T05:18:56.839Z,0.65
2023-02-15T05:21:25.202Z,0.60
2023-02-15T05:23:53.010Z,0.58
2023-02-15T05:26:42.837Z,0.55
2023-02-15T05:29:11.961Z,0.52
2023-02-15T05:31:40.100Z,0.60
2023-02-15T05:34:08.299Z,0.64
2023-02-15T05:36:36.097Z,0.69
2023-02-15T05:39:06.798Z,0.73
2023-02-15T05:41:34.611Z,0.70
2023-02-15T05:44:02.456Z,0.69
2023-02-15T05:46:30.304Z,0.68
2023-02-15T05:48:58.337Z,0.72
2023-02-15T05:51:26.271Z,0.79
2023-02-15T05:53:54.020Z,0.89
2023-02-15T05:56:22.780Z,0.99
2023-02-15T05:58:50.594Z,0.99
2023-02-15T06:01:22.128Z,0.93
2023-02-15T06:03:50.470Z,0.97
2023-02-15T06:06:18.440Z,1.07
2023-02-15T06:08:47.027Z,1.06
2023-02-15T06:11:14.982Z,1.02
2023-02-15T06:13:42.857Z,0.98
2023-02-15T06:16:10.768Z,0.90
2023-02-15T06:18:38.669Z,0.90
2023-02-15T06:21:06.516Z,0.92
2023-02-15T06:23:34.398Z,1.01
2023-02-15T06:26:02.455Z,1.06
2023-02-15T06:28:30.816Z,1.18
2023-02-15T06:30:58.737Z,1.23
2023-02-15T06:33:26.708Z,1.20
2023-02-15T06:35:54.669Z,1.18
2023-02-15T06:38:22.520Z,1.09
2023-02-15T06:40:50.428Z,1.13
2023-02-15T06:43:18.309Z,1.21
2023-02-15T06:45:46.141Z,1.24
2023-02-15T06:48:14.312Z,1.27
2023-02-15T06:50:42.481Z,1.28
2023-02-15T06:53:10.393Z,1.29
2023-02-15T06:55:38.172Z,1.34
2023-02-15T06:58:06.100Z,1.33
2023-02-15T07:00:35.506Z,1.29
2023-02-15T07:03:03.905Z,1.32
2023-02-15T07:05:35.474Z,1.38
2023-02-15T07:08:04.729Z,1.48
2023-02-15T07:10:32.541Z,1.53
2023-02-15T07:13:00.402Z,1.51
2023-02-15T07:15:28.312Z,1.55
2023-02-15T07:17:56.160Z,1.51
2023-02-15T07:20:24.870Z,1.39
2023-02-15T07:22:52.802Z,1.26
2023-02-15T07:25:21.180Z,1.28
2023-02-15T07:27:49.474Z,1.38
2023-02-15T07:30:18.478Z,1.42
2023-02-15T07:33:05.861Z,1.51
2023-02-15T07:35:35.021Z,1.43
2023-02-15T07:38:02.978Z,1.42
2023-02-15T07:40:30.933Z,1.47
2023-02-15T07:43:00.141Z,1.51
2023-02-15T07:45:28.253Z,1.63
2023-02-15T07:47:56.308Z,1.73
2023-02-15T07:50:24.313Z,1.74
2023-02-15T07:52:52.245Z,1.79
2023-02-15T07:55:20.621Z,1.92
2023-02-15T07:57:50.785Z,1.94
2023-02-15T08:00:25.672Z,1.99
2023-02-15T08:03:14.972Z,1.92
2023-02-15T08:05:46.243Z,1.91
2023-02-15T08:08:32.170Z,1.97
2023-02-15T08:11:21.709Z,2.13
2023-02-15T08:14:09.714Z,2.22
2023-02-15T08:17:00.151Z,2.29
2023-02-15T08:19:31.456Z,2.39
2023-02-15T08:22:03.287Z,2.52
2023-02-15T08:24:40.607Z,2.59
2023-02-15T08:27:11.771Z,2.65
2023-02-15T08:29:40.530Z,2.67
2023-02-15T08:32:12.953Z,2.62
2023-02-15T08:34:42.933Z,2.69
2023-02-15T08:37:12.570Z,2.78
2023-02-15T08:39:40.547Z,2.84
2023-02-15T08:42:08.408Z,2.96
2023-02-15T08:44:36.159Z,3.18
2023-02-15T08:47:04.705Z,3.27
2023-02-15T08:49:33.126Z,3.37
2023-02-15T08:52:00.960Z,3.42
2023-02-15T08:54:28.822Z,3.48
2023-02-15T08:56:56.742Z,3.60
2023-02-15T08:59:26.459Z,3.71
2023-02-15T09:01:55.431Z,3.85
2023-02-15T09:04:23.641Z,3.96
2023-02-15T09:06:52.423Z,4.10
2023-02-15T09:09:21.201Z,4.32
2023-02-15T09:11:56.851Z,4.52
2023-02-15T09:14:27.799Z,4.71
2023-02-15T09:16:56.142Z,4.82
2023-02-15T09:19:25.307Z,4.94
2023-02-15T09:21:53.779Z,5.07
2023-02-15T09:24:22.366Z,5.23
2023-02-15T09:26:50.631Z,5.34
2023-02-15T09:29:20.252Z,5.46
2023-02-15T09:31:51.626Z,5.59
2023-02-15T09:34:23.129Z,5.66
2023-02-15T09:36:52.114Z,5.72
2023-02-15T09:39:27.623Z,5.81
2023-02-15T09:42:36.807Z,5.93
2023-02-15T09:45:53.686Z,6.08
2023-02-15T09:48:39.529Z,6.19
2023-02-15T09:52:00.062Z,6.22
2023-02-15T09:54:54.236Z,6.23
2023-02-15T09:58:10.636Z,6.24
2023-02-15T10:00:53.511Z,6.36
2023-02-15T10:04:08.300Z,6.48
2023-02-15T10:06:50.787Z,6.54
2023-02-15T10:09:49.119Z,6.59
2023-02-15T10:13:04.204Z,6.68
2023-02-15T10:16:02.867Z,6.71
2023-02-15T10:19:31.527Z,6.80
2023-02-15T10:22:14.371Z,6.93
2023-02-15T10:25:14.285Z,7.01
2023-02-15T10:27:51.180Z,7.07
2023-02-15T10:30:44.081Z,7.16
2023-02-15T10:33:42.223Z,7.32
2023-02-15T10:37:11.201Z,7.43
2023-02-15T10:40:20.583Z,7.63
2023-02-15T10:43:17.328Z,7.76
2023-02-15T10:46:22.260Z,7.88
2023-02-15T10:49:27.506Z,8.01
2023-02-15T10:52:18.334Z,8.13
2023-02-15T10:54:51.600Z,8.27
2023-02-15T10:57:37.633Z,8.39
2023-02-15T11:00:24.850Z,8.52
2023-02-15T11:03:06.708Z,8.63
2023-02-15T11:05:52.186Z,8.72
2023-02-15T11:08:20.825Z,8.81
2023-02-15T11:10:55.864Z,8.88
2023-02-15T11:13:29.396Z,8.94
2023-02-15T11:16:06.504Z,9.01
2023-02-15T11:18:44.228Z,9.12
2023-02-15T11:21:39.907Z,9.24
2023-02-15T11:24:26.884Z,9.31
2023-02-15T11:27:06.304Z,9.38
2023-02-15T11:29:44.068Z,9.45
2023-02-15T11:32:14.530Z,9.57
2023-02-15T11:35:05.623Z,9.68
2023-02-15T11:38:40.482Z,9.79
2023-02-15T11:41:14.816Z,9.97
2023-02-15T11:43:51.561Z,10.06
2023-02-15T11:46:22.541Z,10.15
2023-02-15T11:48:51.255Z,10.26
2023-02-15T11:51:24.066Z,10.38
2023-02-15T11:53:52.947Z,10.50
2023-02-15T11:56:25.324Z,10.61
2023-02-15T11:59:18.250Z,10.70
2023-02-15T12:01:47.976Z,10.82
2023-02-15T12:04:30.998Z,10.91
2023-02-15T12:07:12.675Z,11.00
2023-02-15T12:10:12.911Z,11.13
2023-02-15T12:12:41.330Z,11.27
2023-02-15T12:15:12.960Z,11.38
2023-02-15T12:17:51.936Z,11.47
2023-02-15T12:20:19.677Z,11.55
2023-02-15T12:23:02.993Z,11.65
2023-02-15T12:25:56.834Z,11.79
2023-02-15T12:28:50.102Z,11.85
2023-02-15T12:31:27.644Z,11.94
2023-02-15T12:34:00.748Z,12.06
2023-02-15T12:36:46.840Z,12.16
2023-02-15T12:39:14.560Z,12.33
2023-02-15T12:41:55.258Z,12.44
2023-02-15T12:44:48.501Z,12.57
2023-02-15T12:47:16.304Z,12.71
2023-02-15T12:49:48.102Z,12.83
2023-02-15T12:52:19.103Z,12.94
2023-02-15T12:54:48.643Z,13.07
2023-02-15T12:57:33.939Z,13.19
2023-02-15T13:00:07.530Z,13.30
2023-02-15T13:02:51.020Z,13.44
2023-02-15T13:05:38.880Z,13.57
2023-02-15T13:08:22.003Z,13.70
2023-02-15T13:11:04.573Z,13.78
2023-02-15T13:13:37.386Z,13.84
2023-02-15T13:16:16.013Z,13.90
2023-02-15T13:18:47.527Z,13.97
2023-02-15T13:21:27.742Z,13.94
2023-02-15T13:24:11.940Z,13.92
2023-02-15T13:26:45.674Z,13.92
2023-02-15T13:29:24.745Z,13.94
2023-02-15T13:31:55.489Z,13.96
2023-02-15T13:34:37.382Z,13.97
2023-02-15T13:37:45.159Z,14.00
2023-02-15T13:40:35.183Z,13.98
2023-02-15T13:43:31.800Z,13.98
2023-02-15T13:46:17.941Z,13.98
2023-02-15T13:49:40.689Z,14.02
2023-02-15T13:52:24.203Z,14.03
2023-02-15T13:55:12.875Z,14.02
2023-02-15T13:58:08.092Z,14.01
2023-02-15T14:00:49.495Z,14.01
2023-02-15T14:03:45.200Z,14.08
2023-02-15T14:06:54.579Z,14.15
2023-02-15T14:09:28.629Z,14.19
2023-02-15T14:12:14.727Z,14.21
2023-02-15T14:15:56.121Z,14.22
2023-02-15T14:18:38.747Z,14.24
2023-02-15T14:21:37.857Z,14.28
2023-02-15T14:24:09.320Z,14.35
2023-02-15T14:26:51.920Z,14.39
2023-02-15T14:29:53.573Z,14.39
2023-02-15T14:32:25.613Z,14.38
2023-02-15T14:34:58.860Z,14.40
2023-02-15T14:38:00.712Z,14.43
2023-02-15T14:41:03.474Z,14.40
2023-02-15T14:43:53.752Z,14.38
2023-02-15T14:46:51.773Z,14.37
2023-02-15T14:49:30.204Z,14.34
2023-02-15T14:52:09.473Z,14.31
2023-02-15T14:54:37.609Z,14.28
2023-02-15T14:57:08.198Z,14.28
2023-02-15T14:59:59.470Z,14.30
2023-02-15T15:02:49.637Z,14.33
2023-02-15T15:05:35.766Z,14.33
2023-02-15T15:08:06.330Z,14.31
2023-02-15T15:10:47.514Z,14.28
2023-02-15T15:13:54.995Z,14.24
2023-02-15T15:16:36.830Z,14.19
2023-02-15T15:19:12.713Z,14.15
2023-02-15T15:21:49.696Z,14.13
2023-02-15T15:24:39.667Z,14.09
2023-02-15T15:27:46.935Z,14.03
2023-02-15T15:30:15.761Z,14.01
2023-02-15T15:32:59.067Z,13.99
2023-02-15T15:36:23.197Z,13.90
2023-02-15T15:39:12.745Z,13.88
2023-02-15T15:41:54.244Z,13.83
2023-02-15T15:44:49.933Z,13.73
2023-02-15T15:47:36.246Z,13.68
2023-02-15T15:50:14.931Z,13.64
2023-02-15T15:52:51.758Z,13.56
2023-02-15T15:55:25.569Z,13.53
2023-02-15T15:58:06.799Z,13.48
2023-02-15T16:00:45.486Z,13.36
2023-02-15T16:03:23.933Z,13.25
2023-02-15T16:05:56.161Z,13.16
2023-02-15T16:08:35.451Z,13.07
2023-02-15T16:11:15.472Z,12.98
2023-02-15T16:13:44.796Z,12.87
2023-02-15T16:16:20.422Z,12.82
2023-02-15T16:18:48.906Z,12.74
2023-02-15T16:21:24.287Z,12.68
2023-02-15T16:24:09.952Z,12.66
2023-02-15T16:27:01.897Z,12.61
2023-02-15T16:29:34.010Z,12.57
2023-02-15T16:32:25.669Z,12.53
2023-02-15T16:35:03.340Z,12.53
2023-02-15T16:37:35.817Z,12.51
2023-02-15T16:40:04.305Z,12.47
2023-02-15T16:42:32.168Z,12.45
2023-02-15T16:45:09.004Z,12.46
2023-02-15T16:47:44.754Z,12.41
2023-02-15T16:50:23.986Z,12.35
2023-02-15T16:52:53.568Z,12.29
2023-02-15T16:55:25.960Z,12.24
2023-02-15T16:58:01.481Z,12.25
2023-02-15T17:00:37.410Z,12.20
2023-02-15T17:03:06.827Z,12.16
2023-02-15T17:05:52.338Z,12.10
2023-02-15T17:08:35.271Z,12.02
2023-02-15T17:11:10.756Z,11.96
2023-02-15T17:13:39.824Z,11.94
2023-02-15T17:16:29.280Z,11.92
2023-02-15T17:18:59.738Z,11.86
2023-02-15T17:21:40.821Z,11.85
2023-02-15T17:24:25.273Z,11.81
2023-02-15T17:27:00.998Z,11.77
2023-02-15T17:29:38.576Z,11.78
2023-02-15T17:32:19.031Z,11.75
2023-02-15T17:35:01.277Z,11.74
2023-02-15T17:37:39.174Z,11.73
2023-02-15T17:40:29.200Z,11.71
2023-02-15T17:42:57.135Z,11.66
2023-02-15T17:45:49.062Z,11.62
2023-02-15T17:48:31.677Z,11.58
2023-02-15T17:51:03.253Z,11.56
2023-02-15T17:53:31.913Z,11.55
2023-02-15T17:55:59.897Z,11.52
2023-02-15T17:58:27.758Z,11.48
2023-02-15T18:01:18.605Z,11.46
2023-02-15T18:04:09.491Z,11.45
2023-02-15T18:07:00.883Z,11.45
2023-02-15T18:09:47.358Z,11.44
2023-02-15T18:12:25.620Z,11.42
2023-02-15T18:14:55.168Z,11.39
2023-02-15T18:17:29.250Z,11.35
2023-02-15T18:19:57.264Z,11.31
2023-02-15T18:22:25.173Z,11.30
2023-02-15T18:24:53.049Z,11.30
2023-02-15T18:27:21.351Z,11.29
2023-02-15T18:29:49.291Z,11.25
2023-02-15T18:32:30.701Z,11.22
2023-02-15T18:34:59.193Z,11.22
2023-02-15T18:37:33.138Z,11.23
2023-02-15T18:40:04.014Z,11.23
2023-02-15T18:42:36.104Z,11.24
2023-02-15T18:45:41.573Z,11.23
2023-02-15T18:48:10.055Z,11.20
2023-02-15T18:50:38.830Z,11.17
2023-02-15T18:53:16.341Z,11.14
2023-02-15T18:55:44.861Z,11.13
2023-02-15T18:58:20.953Z,11.10
2023-02-15T19:00:49.880Z,11.11
2023-02-15T19:03:18.930Z,11.12
2023-02-15T19:05:47.708Z,11.15
2023-02-15T19:08:24.614Z,11.14
2023-02-15T19:10:52.566Z,11.12
2023-02-15T19:13:20.406Z,11.11
2023-02-15T19:15:48.228Z,11.11
2023-02-15T19:18:17.010Z,11.10
2023-02-15T19:20:46.973Z,11.07
2023-02-15T19:23:21.356Z,11.08
2023-02-15T19:25:53.495Z,11.04
2023-02-15T19:28:32.539Z,11.05
2023-02-15T19:31:01.027Z,11.03
2023-02-15T19:33:29.937Z,11.03
2023-02-15T19:35:58.937Z,11.03
2023-02-15T19:38:37.256Z,11.02
2023-02-15T19:41:09.612Z,11.01
2023-02-15T19:43:39.052Z,11.00
2023-02-15T19:46:07.758Z,10.99
2023-02-15T19:48:36.615Z,10.97
2023-02-15T19:51:05.590Z,10.97
2023-02-15T19:53:35.589Z,10.95
2023-02-15T19:56:05.115Z,10.92
2023-02-15T19:58:34.253Z,10.90
2023-02-15T20:01:03.841Z,10.89
2023-02-15T20:03:34.597Z,10.88
2023-02-15T20:06:06.217Z,10.88
2023-02-15T20:08:40.469Z,10.86
2023-02-15T20:11:12.173Z,10.85
2023-02-15T20:13:43.981Z,10.83
2023-02-15T20:16:13.166Z,10.83
2023-02-15T20:18:44.918Z,10.82
2023-02-15T20:21:17.157Z,10.84
2023-02-15T20:23:47.069Z,10.80
2023-02-15T20:26:18.687Z,10.80
2023-02-15T20:28:48.970Z,10.77
2023-02-15T20:31:20.877Z,10.75
2023-02-15T20:33:50.155Z,10.74
2023-02-15T20:36:22.817Z,10.74
2023-02-15T20:38:52.495Z,10.75
2023-02-15T20:41:39.459Z,10.72
2023-02-15T20:44:35.003Z,10.69
2023-02-15T20:47:04.307Z,10.67
2023-02-15T20:49:34.025Z,10.65
2023-02-15T20:52:22.763Z,10.65
2023-02-15T20:54:52.921Z,10.65
2023-02-15T20:57:23.487Z,10.66
2023-02-15T20:59:53.049Z,10.68
2023-02-15T21:02:26.282Z,10.67
2023-02-15T21:05:02.246Z,10.67
2023-02-15T21:07:35.120Z,10.65
2023-02-15T21:10:07.732Z,10.61
2023-02-15T21:12:38.262Z,10.58
2023-02-15T21:15:31.719Z,10.55
2023-02-15T21:18:13.168Z,10.55
2023-02-15T21:20:49.970Z,10.51
2023-02-15T21:23:27.055Z,10.47
2023-02-15T21:25:58.946Z,10.47
2023-02-15T21:28:30.778Z,10.45
2023-02-15T21:30:59.896Z,10.44
2023-02-15T21:33:29.142Z,10.42
2023-02-15T21:35:59.822Z,10.42
2023-02-15T21:38:32.629Z,10.41
2023-02-15T21:41:23.427Z,10.40
2023-02-15T21:44:13.655Z,10.37
2023-02-15T21:46:42.852Z,10.32
2023-02-15T21:49:11.477Z,10.27
2023-02-15T21:51:58.397Z,10.20
2023-02-15T21:54:27.418Z,10.14
2023-02-15T21:56:55.783Z,10.07
2023-02-15T21:59:28.495Z,10.02
2023-02-15T22:01:58.324Z,10.01
2023-02-15T22:04:31.200Z,9.98
2023-02-15T22:06:59.754Z,9.97
2023-02-15T22:09:28.224Z,9.95
2023-02-15T22:11:56.590Z,9.94
2023-02-15T22:14:50.705Z,9.89
2023-02-15T22:17:29.377Z,9.90
2023-02-15T22:19:58.236Z,9.86
2023-02-15T22:22:30.631Z,9.81
2023-02-15T22:24:59.477Z,9.75
2023-02-15T22:27:28.763Z,9.62
2023-02-15T22:30:00.889Z,9.51
2023-02-15T22:32:29.952Z,9.41
2023-02-15T22:34:57.830Z,9.32
2023-02-15T22:37:25.836Z,9.21
2023-02-15T22:39:54.497Z,9.13
2023-02-15T22:42:28.750Z,9.06
2023-02-15T22:44:58.207Z,8.97
2023-02-15T22:47:29.711Z,8.91
2023-02-15T22:49:57.512Z,8.83
2023-02-15T22:52:25.307Z,8.75
2023-02-15T22:54:53.106Z,8.68
2023-02-15T22:57:31.685Z,8.62
2023-02-15T23:00:01.115Z,8.55
2023-02-15T23:02:29.105Z,8.48
2023-02-15T23:04:57.107Z,8.40
2023-02-15T23:07:25.220Z,8.34
2023-02-15T23:09:53.052Z,8.27
2023-02-15T23:12:50.172Z,8.20
2023-02-15T23:15:18.021Z,8.15
2023-02-15T23:17:45.807Z,8.13
2023-02-15T23:20:15.458Z,8.09
2023-02-15T23:22:44.368Z,8.05
2023-02-15T23:25:12.551Z,8.00
2023-02-15T23:27:59.069Z,7.98
2023-02-15T23:30:27.209Z,7.95
2023-02-15T23:32:57.015Z,7.94
2023-02-15T23:35:24.864Z,7.93
2023-02-15T23:37:52.724Z,7.93
2023-02-15T23:40:41.045Z,7.92
2023-02-15T23:43:20.277Z,7.90
2023-02-15T23:45:48.579Z,7.91
2023-02-15T23:48:33.957Z,7.88
2023-02-15T23:51:03.776Z,7.85
2023-02-15T23:53:33.416Z,7.86
2023-02-15T23:56:01.934Z,7.84
2023-02-15T23:58:40.428Z,7.84
